Coral Springs, Florida
Current Conditions -  °F | °C
As of 6:53 PM on Monday 20 Oct 2014 (Local Time) from KFXE Reporting Station
Overcast Overcast  
Wind Chill: 80°   Ceiling: 3800
Heat Index: 82°   Visibility: 10mi
Dew Point: 67°   Wind: 10mph
Humidity: 64%   Direction: 110°ESE
Pressure: 29.95"   Gusts: NA
Location:  26.27°N, 80.25°W
Report Text: KFXE 202253Z 11009KT 10SM OVC038 27/19 A2995 RMK AO2 RAE2154 SLP143 P0000 T02670194
Loading
Personal Weather Stations






























Interactive Weather Map
Tropical Storm Tracking
New forecast layout! Learn more

10-Day Weather Forecast

Advertisements
Track Severe Weather on mobile